• Join FlightAware (Why Join?)
  • Login
  • US Flag 
01:36PM EDT


 

Airport Tracker/Info


-or-


 

Live Flight TrackerFlight Track Log ✈ CES553 ✈ 11-Jul-2013 ✈ ZSPD / PVG - LFPG / CDG

Flight Track Log - Related Links

Times and Time Zones

All times are in EDT time to prevent confusion due to time zone crossing. See the CES553 flight status page for this flight to view local times or setup timezone preferences in your user account.

Time Position Orientation Groundspeed Altitude Reporting Facility
EDT Latitude Longitude Course Direction KTS MPH feet Rate Location/Type
12:31PM 31.1050 121.8070 162° South 153 176 2,100  Level FlightAware
12:31PM 31.0910 121.8120 163° South 153 176 2,100 1,080 Level FlightAware
12:32PM 31.0560 121.8260 161° South 177 204 3,200 1,260 Climbing FlightAware
12:33PM 31.0300 121.8360 162° South 207 238 3,500 600 Climbing FlightAware
12:33PM 30.9880 121.8160 202° Southwest 263 303 4,000 1,080 Climbing FlightAware
12:34PM 30.9760 121.7730 252° West 277 319 4,900 1,860 Climbing FlightAware
12:34PM 30.9710 121.7530 254° West 282 325 5,400 720 Climbing FlightAware
12:35PM 30.9630 121.6990 260° West 287 330 5,600 1,920 Climbing FlightAware
12:35PM 30.9890 121.6700 316° Northwest 298 343 7,200 3,300 Climbing FlightAware
12:35PM 31.0050 121.6310 296° West 302 348 8,000 2,040 Climbing FlightAware
12:36PM 31.0190 121.5960 295° West 306 352 8,900 2,280 Climbing FlightAware
12:36PM 31.0370 121.5510 295° West 308 354 9,900 1,080 Climbing FlightAware
12:37PM 31.0500 121.5190 295° West 308 354 9,900  Level FlightAware
12:37PM 31.0560 121.5040 295° West 308 354 9,900 1,380 Level FlightAware
12:38PM 31.0890 121.4250 296° West 366 421 11,200 1,680 Climbing FlightAware
12:38PM 31.1240 121.3470 298° West 378 435 12,400 840 Climbing FlightAware
12:39PM 31.1520 121.2860 298° West 378 435 12,400 1,860 Level FlightAware
12:40PM 31.2830 121.2320 341° North 393 452 15,500 2,700 Climbing FlightAware
12:41PM 31.3400 121.1930 330° Northwest 393 452 16,700 1,740 Climbing FlightAware
12:41PM 31.4030 121.1490 329° Northwest 408 470 17,700 1,080 Climbing FlightAware
12:42PM 31.4710 121.1060 332° Northwest 428 493 18,200 1,080 Climbing FlightAware
12:43PM 31.5460 121.0660 336° Northwest 428 493 19,200 1,080 Climbing FlightAware
12:43PM 31.6290 121.0210 335° Northwest 428 493 19,900 1,200 Climbing FlightAware
12:44PM 31.6890 120.9890 336° Northwest 426 490 20,900 720 Climbing FlightAware
12:45PM 31.7630 120.9480 335° Northwest 426 490 20,900  Level FlightAware
12:45PM 31.8180 120.9180 335° Northwest 426 490 20,900  Level FlightAware
12:46PM 31.8940 120.8770 335° Northwest 426 490 20,900  Level FlightAware
12:47PM 31.9460 120.8480 335° Northwest 426 490 20,900 180 Level FlightAware
12:50PM 32.1915 120.6397 324° Northwest  Level Estimated
12:51PM 32.2835 120.5614 324° Northwest  Level Estimated
12:52PM 32.3754 120.4828 324° Northwest  Level Estimated
12:53PM 32.4673 120.4041 324° Northwest  Level Estimated
12:54PM 32.5591 120.3253 324° Northwest  Level Estimated
12:55PM 32.6509 120.2462 324° Northwest  Level Estimated
12:56PM 32.7426 120.1671 324° Northwest  Level Estimated
12:57PM 32.8343 120.0877 324° Northwest  Level Estimated
12:58PM 32.9259 120.0082 324° Northwest  Level Estimated
12:59PM 33.0175 119.9285 324° Northwest  Level Estimated
01:00PM 33.1090 119.8487 324° Northwest  Level Estimated
01:01PM 33.2005 119.7687 324° Northwest  Level Estimated
01:02PM 33.2920 119.6885 324° Northwest  Level Estimated
01:03PM 33.3833 119.6081 324° Northwest  Level Estimated
01:04PM 33.4746 119.5276 324° Northwest  Level Estimated
01:05PM 33.5659 119.4470 324° Northwest  Level Estimated
01:06PM 33.6571 119.3661 324° Northwest  Level Estimated
01:07PM 33.7483 119.2851 324° Northwest  Level Estimated
01:08PM 33.8394 119.2039 323° Northwest  Level Estimated
01:09PM 33.9305 119.1225 323° Northwest  Level Estimated
01:10PM 34.0215 119.0409 323° Northwest  Level Estimated
01:11PM 34.1124 118.9592 323° Northwest  Level Estimated
01:12PM 34.2033 118.8773 323° Northwest  Level Estimated
01:13PM 34.2942 118.7953 323° Northwest  Level Estimated
01:14PM 34.3850 118.7130 323° Northwest  Level Estimated
01:15PM 34.4757 118.6306 323° Northwest  Level Estimated
01:16PM 34.5664 118.5480 323° Northwest  Level Estimated
01:17PM 34.6570 118.4652 323° Northwest  Level Estimated
01:18PM 34.7476 118.3822 323° Northwest  Level Estimated
01:19PM 34.8381 118.2991 323° Northwest  Level Estimated
01:20PM 34.9285 118.2157 323° Northwest  Level Estimated
01:21PM 35.0189 118.1322 323° Northwest  Level Estimated
01:22PM 35.1093 118.0485 323° Northwest  Level Estimated
01:23PM 35.1995 117.9646 323° Northwest  Level Estimated
01:24PM 35.2898 117.8805 323° Northwest  Level Estimated
01:25PM 35.3799 117.7963 323° Northwest  Level Estimated
01:26PM 35.4700 117.7118 323° Northwest  Level Estimated
01:27PM 35.5601 117.6272 323° Northwest  Level Estimated
01:28PM 35.6501 117.5424 323° Northwest  Level Estimated
01:29PM 35.7400 117.4573 323° Northwest  Level Estimated
01:30PM 35.8299 117.3721 322° Northwest  Level Estimated
01:31PM 35.9197 117.2867 322° Northwest  Level Estimated
01:32PM 36.0094 117.2011 322° Northwest  Level Estimated
01:33PM 36.0991 117.1153 322° Northwest  Level Estimated
01:34PM 36.1887 117.0293 322° Northwest  Level Estimated
01:35PM 36.2783 116.9431 322° Northwest  Level Estimated
01:36PM 36.3678 116.8567 322° Northwest  Level Estimated
01:37PM 36.4572 116.7701 322° Northwest  Level Estimated
01:38PM 36.5466 116.6833 322° Northwest  Level Estimated
01:39PM 36.6359 116.5964 322° Northwest  Level Estimated
01:40PM 36.7252 116.5092 322° Northwest  Level Estimated
01:41PM 36.8144 116.4218 322° Northwest  Level Estimated
01:42PM 36.9035 116.3342 322° Northwest  Level Estimated
01:43PM 36.9925 116.2464 322° Northwest  Level Estimated
01:44PM 37.0815 116.1584 322° Northwest  Level Estimated
01:45PM 37.1705 116.0702 322° Northwest  Level Estimated
01:46PM 37.2593 115.9817 322° Northwest  Level Estimated
01:47PM 37.3481 115.8931 322° Northwest  Level Estimated
01:48PM 37.4369 115.8043 322° Northwest  Level Estimated
01:49PM 37.5255 115.7152 321° Northwest  Level Estimated
01:50PM 37.6141 115.6260 321° Northwest  Level Estimated
01:51PM 37.7026 115.5365 321° Northwest  Level Estimated
01:52PM 37.7911 115.4468 321° Northwest  Level Estimated
01:53PM 37.8795 115.3569 321° Northwest  Level Estimated
01:53PM 39.2690 116.6650 321° Northwest 473 544 36,100  Level FlightAware
01:54PM 37.9678 115.2667 321° Northwest  Level Estimated
01:54PM 39.3450 116.6700 North 473 544 36,100  Level FlightAware
01:54PM 39.4340 116.6760 North 473 544 36,100  Level FlightAware
01:55PM 39.5580 116.6880 North 477 549 36,100  Level FlightAware
01:56PM 39.6440 116.6940 North 477 549 36,100  Level FlightAware
01:56PM 39.7310 116.7010 North 477 549 36,100  Level FlightAware
01:57PM 39.8300 116.7090 North 476 548 36,100  Level FlightAware
01:58PM 39.9520 116.7180 North 473 544 36,100  Level FlightAware
01:59PM 40.0410 116.7250 North 471 542 36,100  Level FlightAware
01:59PM 40.1130 116.7300 North 471 542 36,100  Level FlightAware
02:00PM 40.2080 116.7390 North 471 542 36,100  Level FlightAware
02:01PM 40.2970 116.7450 North 471 542 36,100  Level FlightAware
02:01PM 40.3640 116.7500 North 471 542 36,100  Level FlightAware
02:02PM 40.4510 116.7560 North 471 542 36,100  Level FlightAware
02:03PM 40.5170 116.7600 North 471 542 36,100  Level FlightAware
02:04PM 40.6060 116.7660 North 471 542 36,100  Level FlightAware
02:04PM 40.6740 116.7710 North 471 542 36,100  Level FlightAware
02:05PM 40.7650 116.7770 North 471 542 36,100  Level FlightAware
02:06PM 40.8320 116.7820 North 471 542 36,100  Level FlightAware
02:06PM 40.9200 116.7880 North 471 542 36,100  Level FlightAware
02:07PM 40.9890 116.7930 North 471 542 36,100 -60 Level FlightAware
02:08PM 41.2080 116.6070 327° Northwest 36,100 -60 Level FlightAware
02:11PM 41.4330 116.3652 321° Northwest  Level Estimated
02:12PM 41.5210 116.2699 321° Northwest  Level Estimated
02:13PM 41.6091 116.1744 321° Northwest  Level Estimated
02:14PM 41.6970 116.0786 321° Northwest  Level Estimated
02:15PM 41.7848 115.9825 321° Northwest  Level Estimated
02:16PM 41.8726 115.8862 321° Northwest  Level Estimated
02:17PM 41.9603 115.7896 321° Northwest  Level Estimated
02:18PM 42.0479 115.6927 321° Northwest  Level Estimated
02:19PM 42.1354 115.5956 321° Northwest  Level Estimated
02:20PM 42.2228 115.4982 320° Northwest  Level Estimated
02:21PM 42.3102 115.4005 320° Northwest  Level Estimated
02:22PM 42.3974 115.3026 320° Northwest  Level Estimated
02:23PM 42.4846 115.2044 320° Northwest  Level Estimated
02:24PM 42.5717 115.1059 320° Northwest  Level Estimated
02:25PM 42.6588 115.0071 320° Northwest  Level Estimated
02:26PM 42.7457 114.9081 320° Northwest  Level Estimated
02:27PM 42.8326 114.8088 320° Northwest  Level Estimated
02:28PM 42.9193 114.7092 320° Northwest  Level Estimated
02:29PM 43.0060 114.6093 320° Northwest  Level Estimated
02:30PM 43.0926 114.5091 320° Northwest  Level Estimated
02:31PM 43.1791 114.4087 320° Northwest  Level Estimated
02:32PM 43.2655 114.3080 320° Northwest  Level Estimated
02:33PM 43.3518 114.2069 320° Northwest  Level Estimated
02:34PM 43.4381 114.1057 320° Northwest  Level Estimated
02:35PM 43.5242 114.0041 319° Northwest  Level Estimated
02:36PM 43.6103 113.9022 319° Northwest  Level Estimated
02:37PM 43.6962 113.8000 319° Northwest  Level Estimated
02:38PM 43.7821 113.6975 319° Northwest  Level Estimated
02:39PM 43.8679 113.5948 319° Northwest  Level Estimated
02:40PM 43.9536 113.4917 319° Northwest  Level Estimated
02:41PM 44.0392 113.3884 319° Northwest  Level Estimated
02:42PM 44.1247 113.2847 319° Northwest  Level Estimated
02:43PM 44.2101 113.1808 319° Northwest  Level Estimated
02:44PM 44.2954 113.0765 319° Northwest  Level Estimated
02:45PM 44.3806 112.9720 319° Northwest  Level Estimated
02:46PM 44.4658 112.8671 319° Northwest  Level Estimated
02:47PM 44.5508 112.7619 319° Northwest  Level Estimated
02:48PM 44.6357 112.6565 319° Northwest  Level Estimated
02:49PM 44.7206 112.5507 318° Northwest  Level Estimated
02:50PM 44.8053 112.4446 318° Northwest  Level Estimated
02:51PM 44.8899 112.3382 318° Northwest  Level Estimated
02:52PM 44.9745 112.2315 318° Northwest  Level Estimated
02:53PM 45.0589 112.1245 318° Northwest  Level Estimated
02:54PM 45.1433 112.0171 318° Northwest  Level Estimated
02:55PM 45.2275 111.9094 318° Northwest  Level Estimated
02:56PM 45.3116 111.8014 318° Northwest  Level Estimated
02:57PM 45.3957 111.6931 318° Northwest  Level Estimated
02:58PM 45.4796 111.5845 318° Northwest  Level Estimated
02:59PM 45.5634 111.4755 318° Northwest  Level Estimated
03:00PM 45.6472 111.3663 318° Northwest  Level Estimated
03:01PM 45.7308 111.2567 318° Northwest  Level Estimated
03:02PM 45.8143 111.1467 317° Northwest  Level Estimated
03:03PM 45.8977 111.0364 317° Northwest  Level Estimated
03:04PM 45.9810 110.9258 317° Northwest  Level Estimated
03:05PM 46.0642 110.8149 317° Northwest  Level Estimated
03:06PM 46.1473 110.7036 317° Northwest  Level Estimated
03:07PM 46.2303 110.5920 317° Northwest  Level Estimated
03:08PM 46.3132 110.4801 317° Northwest  Level Estimated
03:09PM 46.3959 110.3678 317° Northwest  Level Estimated
03:10PM 46.4786 110.2552 317° Northwest  Level Estimated
03:11PM 46.5611 110.1422 317° Northwest  Level Estimated
03:12PM 46.6436 110.0289 317° Northwest  Level Estimated
03:13PM 46.7259 109.9153 317° Northwest  Level Estimated
03:14PM 46.8081 109.8013 317° Northwest  Level Estimated
03:15PM 46.8902 109.6869 316° Northwest  Level Estimated
03:16PM 46.9721 109.5722 316° Northwest  Level Estimated
03:17PM 47.0540 109.4572 316° Northwest  Level Estimated
03:18PM 47.1357 109.3418 316° Northwest  Level Estimated
03:19PM 47.2174 109.2260 316° Northwest  Level Estimated
03:20PM 47.2989 109.1099 316° Northwest  Level Estimated
03:21PM 47.3803 108.9934 316° Northwest  Level Estimated
03:22PM 47.4616 108.8766 316° Northwest  Level Estimated
03:23PM 47.5427 108.7594 316° Northwest  Level Estimated
03:24PM 47.6238 108.6418 316° Northwest  Level Estimated
03:25PM 47.7047 108.5239 316° Northwest  Level Estimated
03:26PM 47.7855 108.4056 315° West  Level Estimated
03:27PM 47.8662 108.2870 315° West  Level Estimated
03:28PM 47.9467 108.1679 315° West  Level Estimated
03:29PM 48.0271 108.0485 315° West  Level Estimated
03:30PM 48.1074 107.9288 315° West  Level Estimated
03:31PM 48.1876 107.8086 315° West  Level Estimated
03:32PM 48.2677 107.6881 315° West  Level Estimated
03:33PM 48.3476 107.5672 315° West  Level Estimated
03:34PM 48.4274 107.4459 315° West  Level Estimated
03:35PM 48.5071 107.3243 315° West  Level Estimated
03:36PM 48.5866 107.2022 315° West  Level Estimated
03:37PM 48.6660 107.0798 315° West  Level Estimated
03:38PM 48.7453 106.9570 314° West  Level Estimated
03:39PM 48.8245 106.8338 314° West  Level Estimated
03:40PM 48.9035 106.7102 314° West  Level Estimated
03:41PM 48.9824 106.5862 314° West  Level Estimated
03:42PM 49.0611 106.4618 314° West  Level Estimated
03:43PM 49.1398 106.3371 314° West  Level Estimated
03:44PM 49.2182 106.2119 314° West  Level Estimated
03:45PM 49.2966 106.0863 314° West  Level Estimated
03:46PM 49.3748 105.9604 314° West  Level Estimated
03:47PM 49.4529 105.8340 314° West  Level Estimated
03:48PM 49.5308 105.7072 313° West  Level Estimated
03:49PM 49.6086 105.5801 313° West  Level Estimated
03:50PM 49.6863 105.4525 313° West  Level Estimated
03:51PM 49.7638 105.3245 313° West  Level Estimated
03:52PM 49.8412 105.1961 313° West  Level Estimated
03:53PM 49.9184 105.0673 313° West  Level Estimated
03:54PM 49.9955 104.9381 313° West  Level Estimated
03:55PM 50.0725 104.8084 313° West  Level Estimated
03:56PM 50.1493 104.6784 313° West  Level Estimated
03:57PM 50.2259 104.5479 313° West  Level Estimated
03:58PM 50.3024 104.4170 312° West  Level Estimated
03:59PM 50.3788 104.2857 312° West  Level Estimated
04:00PM 50.4550 104.1540 312° West  Level Estimated
04:01PM 50.5311 104.0218 312° West  Level Estimated
04:02PM 50.6070 103.8893 312° West  Level Estimated
04:03PM 50.6828 103.7562 312° West  Level Estimated
04:04PM 50.7584 103.6228 312° West  Level Estimated
04:05PM 50.8339 103.4889 312° West  Level Estimated
04:06PM 50.9092 103.3546 312° West  Level Estimated
04:07PM 50.9843 103.2199 312° West  Level Estimated
04:08PM 51.0593 103.0847 311° West  Level Estimated
04:09PM 51.1342 102.9491 311° West  Level Estimated
04:10PM 51.2089 102.8130 311° West  Level Estimated
04:11PM 51.2834 102.6765 311° West  Level Estimated
04:12PM 51.3578 102.5396 311° West  Level Estimated
04:13PM 51.4320 102.4022 311° West  Level Estimated
04:14PM 51.5060 102.2644 311° West  Level Estimated
04:15PM 51.5799 102.1261 311° West  Level Estimated
04:16PM 51.6536 101.9874 311° West  Level Estimated
04:17PM 51.7272 101.8482 311° West  Level Estimated
04:18PM 51.8006 101.7085 310° West  Level Estimated
04:19PM 51.8738 101.5684 310° West  Level Estimated
04:20PM 51.9469 101.4279 310° West  Level Estimated
04:21PM 52.0198 101.2869 310° West  Level Estimated
04:22PM 52.0925 101.1454 310° West  Level Estimated
04:23PM 52.1650 101.0035 310° West  Level Estimated
04:24PM 52.2374 100.8611 310° West  Level Estimated
04:25PM 52.3096 100.7183 310° West  Level Estimated
04:26PM 52.3817 100.5749 310° West  Level Estimated
04:27PM 52.4535 100.4312 309° West  Level Estimated
04:28PM 52.5252 100.2869 309° West  Level Estimated
04:29PM 52.5967 100.1422 309° West  Level Estimated
04:30PM 52.6681 99.9970 309° West  Level Estimated
04:31PM 52.7392 99.8513 309° West  Level Estimated
04:32PM 52.8102 99.7051 309° West  Level Estimated
04:33PM 52.8810 99.5585 309° West  Level Estimated
04:34PM 52.9516 99.4114 309° West  Level Estimated
04:35PM 53.0220 99.2638 308° West  Level Estimated
04:36PM 53.0923 99.1157 308° West  Level Estimated
04:37PM 53.1624 98.9672 308° West  Level Estimated
04:38PM 53.2323 98.8182 308° West  Level Estimated
04:39PM 53.3019 98.6686 308° West  Level Estimated
04:40PM 53.3715 98.5186 308° West  Level Estimated
04:41PM 53.4408 98.3681 308° West  Level Estimated
04:42PM 53.5099 98.2171 308° West  Level Estimated
04:43PM 53.5788 98.0656 308° West  Level Estimated
04:44PM 53.6476 97.9137 307° West  Level Estimated
04:45PM 53.7161 97.7612 307° West  Level Estimated
04:46PM 53.7845 97.6082 307° West  Level Estimated
04:47PM 53.8527 97.4547 307° West  Level Estimated
04:48PM 53.9206 97.3008 307° West  Level Estimated
04:49PM 53.9884 97.1463 307° West  Level Estimated
04:50PM 54.0560 96.9913 307° West  Level Estimated
04:51PM 54.1233 96.8358 307° West  Level Estimated
04:52PM 54.1905 96.6798 306° West  Level Estimated
04:53PM 54.2575 96.5234 306° West  Level Estimated
04:54PM 54.3242 96.3663 306° West  Level Estimated
04:55PM 54.3908 96.2088 306° West  Level Estimated
04:56PM 54.4572 96.0508 306° West  Level Estimated
04:57PM 54.5233 95.8923 306° West  Level Estimated
04:58PM 54.5892 95.7332 306° West  Level Estimated
04:59PM 54.6550 95.5737 305° West  Level Estimated
05:00PM 54.7205 95.4136 305° West  Level Estimated
05:01PM 54.7858 95.2530 305° West  Level Estimated
05:02PM 54.8509 95.0919 305° West  Level Estimated
05:03PM 54.9158 94.9302 305° West  Level Estimated
05:04PM 54.9805 94.7681 305° West  Level Estimated
05:05PM 55.0449 94.6054 305° West  Level Estimated
05:06PM 55.1091 94.4422 305° West  Level Estimated
05:07PM 55.1731 94.2785 304° West  Level Estimated
05:08PM 55.2369 94.1142 304° West  Level Estimated
05:09PM 55.3005 93.9494 304° West  Level Estimated
05:10PM 55.3639 93.7841 304° West  Level Estimated
05:11PM 55.4270 93.6183 304° West  Level Estimated
05:12PM 55.4899 93.4519 304° West  Level Estimated
05:13PM 55.5526 93.2850 304° West  Level Estimated
05:14PM 55.6150 93.1176 303° West  Level Estimated
05:15PM 55.6772 92.9496 303° West  Level Estimated
05:15PM 53.1240 89.3930 303° West 422 486 36,000  Level FlightAware
05:16PM 55.7392 92.7811 303° West  Level Estimated
05:16PM 53.1620 89.2610 296° West 420 483 36,000  Level FlightAware
05:16PM 53.1960 89.1420 296° West 418 481 36,000  Level FlightAware
05:17PM 53.2250 89.0390 295° West 417 480 36,000  Level FlightAware
05:18PM 53.2630 88.9080 296° West 416 479 36,000  Level FlightAware
05:18PM 53.2930 88.7990 295° West 416 479 36,000  Level FlightAware
05:19PM 53.3280 88.6760 296° West 418 481 36,000  Level FlightAware
05:20PM 53.3570 88.5700 295° West 416 479 36,000  Level FlightAware
05:20PM 53.3960 88.4300 295° West 415 478 36,000  Level FlightAware
05:21PM 53.4280 88.3150 295° West 413 475 36,000  Level FlightAware
05:22PM 53.4640 88.1830 295° West 412 474 36,000  Level FlightAware
05:22PM 53.4950 88.0690 295° West 412 474 36,000  Level FlightAware
05:23PM 53.5260 87.9550 295° West 412 474 36,000  Level FlightAware
05:24PM 53.5620 87.8230 295° West 413 475 36,000  Level FlightAware
05:25PM 53.5960 87.6940 294° West 412 474 36,000  Level FlightAware
05:25PM 53.6280 87.5740 294° West 412 474 36,000  Level FlightAware
05:26PM 53.6550 87.4740 295° West 412 474 36,000  Level FlightAware
05:27PM 53.6890 87.3450 294° West 413 475 36,000  Level FlightAware
05:27PM 53.7210 87.2230 294° West 413 475 36,000  Level FlightAware
05:28PM 53.7510 87.1080 294° West 412 474 36,000  Level FlightAware
05:29PM 53.7810 86.9940 294° West 412 474 36,000  Level FlightAware
05:29PM 53.8260 86.8640 300° West 414 476 36,000  Level FlightAware
05:30PM 53.8750 86.7650 310° West 416 479 36,000  Level FlightAware
05:31PM 53.9330 86.6610 313° West 415 478 36,000  Level FlightAware
05:31PM 53.9860 86.5670 314° West 415 478 36,000  Level FlightAware
05:32PM 54.0450 86.4610 313° West 416 479 36,000  Level FlightAware
05:33PM 54.0980 86.3650 313° West 417 480 36,000  Level FlightAware
05:34PM 54.1580 86.2580 314° West 417 480 36,000  Level FlightAware
05:34PM 54.2070 86.1670 313° West 417 480 36,000  Level FlightAware
05:35PM 54.2630 86.0660 314° West 418 481 36,000  Level FlightAware
05:36PM 54.3160 85.9700 313° West 420 483 36,000  Level FlightAware
05:37PM 54.3900 85.8330 313° West 418 481 36,000  Level FlightAware
05:37PM 54.4590 85.7060 313° West 418 481 36,000  Level FlightAware
05:38PM 54.5100 85.6110 313° West 418 481 36,000  Level FlightAware
05:39PM 54.5640 85.5110 313° West 419 482 36,000  Level FlightAware
05:39PM 54.6230 85.4000 313° West 421 484 36,000  Level FlightAware
05:40PM 54.6620 85.3260 312° West 422 486 36,000  Level FlightAware
05:41PM 54.7210 85.2150 313° West 424 488 36,000  Level FlightAware
05:41PM 54.7730 85.1160 312° West 425 489 36,000  Level FlightAware
05:42PM 54.8330 85.0010 312° West 426 490 36,000  Level FlightAware
05:43PM 54.8860 84.9000 312° West 429 494 36,000  Level FlightAware
05:43PM 54.9390 84.7990 312° West 429 494 36,000  Level FlightAware
05:44PM 54.9980 84.6850 312° West 431 496 36,000  Level FlightAware
05:45PM 55.0450 84.5930 312° West 432 497 36,000  Level FlightAware
05:45PM 55.0980 84.4910 312° West 432 497 36,000  Level FlightAware
05:46PM 55.1570 84.3750 312° West 431 496 36,000  Level FlightAware
05:47PM 55.2040 84.2830 312° West 431 496 36,000  Level FlightAware
05:47PM 55.2560 84.1810 312° West 432 497 36,000  Level FlightAware
05:48PM 55.3160 84.0620 312° West 432 497 36,000  Level FlightAware
05:49PM 55.3690 83.9570 312° West 434 499 36,000  Level FlightAware
05:50PM 55.4220 83.8510 311° West 434 499 36,000  Level FlightAware
05:50PM 55.4800 83.7330 311° West 433 498 36,000  Level FlightAware
05:51PM 55.5320 83.6290 311° West 430 495 36,000  Level FlightAware
05:51PM 55.5720 83.5490 312° West 430 495 36,000  Level FlightAware
05:52PM 55.6240 83.4420 311° West 428 493 36,000  Level FlightAware
05:53PM 55.6820 83.3240 311° West 428 493 36,000  Level FlightAware
05:54PM 55.7330 83.2190 311° West 427 491 36,000  Level FlightAware
05:54PM 55.7840 83.1150 311° West 427 491 36,000  Level FlightAware
05:55PM 55.8410 82.9960 310° West 428 493 36,000  Level FlightAware
05:56PM 55.8930 82.8880 311° West 428 493 36,000  Level FlightAware
05:56PM 55.9370 82.7950 310° West 428 493 36,000  Level FlightAware
05:57PM 55.9950 82.6750 311° West 427 491 36,000  Level FlightAware
05:58PM 56.0460 82.5660 310° West 427 491 36,000  Level FlightAware
05:58PM 56.0900 82.4740 311° West 426 490 36,000  Level FlightAware
05:59PM 56.1460 82.3540 310° West 425 489 36,000  Level FlightAware
06:00PM 56.1980 82.2450 311° West 425 489 36,000  Level FlightAware
06:00PM 56.2540 82.1230 310° West 425 489 36,000  Level FlightAware
06:01PM 56.2970 82.0310 310° West 426 490 36,000  Level FlightAware
06:02PM 56.3550 81.9060 310° West 426 490 36,000  Level FlightAware
06:02PM 56.4110 81.7840 310° West 425 489 36,000  Level FlightAware
06:03PM 56.4590 81.6780 309° West 426 490 36,000  Level FlightAware
06:04PM 56.5100 81.5670 310° West 428 493 36,000  Level FlightAware
06:05PM 56.5660 81.4430 309° West 429 494 36,000  Level FlightAware
06:05PM 56.6170 81.3300 309° West 427 491 36,000  Level FlightAware
06:06PM 56.6720 81.2070 309° West 425 489 36,000  Level FlightAware
06:07PM 56.7200 81.1000 309° West 424 488 36,000  Level FlightAware
06:07PM 56.7700 80.9870 309° West 423 487 36,000  Level FlightAware
06:08PM 56.8190 80.8770 309° West 422 486 36,000  Level FlightAware
06:09PM 56.8670 80.7670 309° West 422 486 36,000  Level FlightAware
06:09PM 56.9160 80.6540 308° West 421 484 36,000  Level FlightAware
06:10PM 56.9710 80.5290 309° West 421 484 36,000  Level FlightAware
06:11PM 57.0420 80.3640 308° West 422 486 36,000  Level FlightAware
06:12PM 57.0960 80.2400 309° West 425 489 36,000  Level FlightAware
06:12PM 57.1450 80.1250 308° West 427 491 36,000  Level FlightAware
06:13PM 57.2000 79.9970 308° West 428 493 36,000  Level FlightAware
06:14PM 57.2490 79.8820 308° West 428 493 36,000  Level FlightAware
06:15PM 57.3320 79.6860 308° West 423 487 36,000  Level FlightAware
06:16PM 57.3810 79.5700 308° West 419 482 36,000  Level FlightAware
06:16PM 57.4340 79.4420 308° West 418 481 36,000  Level FlightAware
06:17PM 57.4810 79.3300 308° West 418 481 36,000  Level FlightAware
06:18PM 57.5270 79.2190 308° West 420 483 36,000  Level FlightAware
06:19PM 57.5810 79.0880 308° West 423 487 36,000  Level FlightAware
06:19PM 57.6280 78.9750 308° West 425 489 36,000  Level FlightAware
06:20PM 57.6820 78.8420 307° West 426 490 36,000  Level FlightAware
06:21PM 57.7240 78.7380 307° West 428 493 36,000  Level FlightAware
06:21PM 57.7720 78.6210 308° West 430 495 36,000  Level FlightAware
06:22PM 57.8250 78.4890 307° West 432 497 36,000  Level FlightAware
06:23PM 57.8670 78.3840 307° West 431 496 36,000  Level FlightAware
06:23PM 57.9210 78.2490 307° West 431 496 36,000  Level FlightAware
06:24PM 57.9910 78.0720 307° West 433 498 36,000  Level FlightAware
06:25PM 58.0380 77.9540 307° West 433 498 36,000  Level FlightAware
06:26PM 58.1080 77.7740 306° West 434 499 36,000  Level FlightAware
06:27PM 58.1640 77.6320 307° West 434 499 36,000  Level FlightAware
06:28PM 58.2180 77.4920 306° West 432 497 36,000  Level FlightAware
06:28PM 58.2640 77.3720 306° West 433 498 36,000  Level FlightAware
06:29PM 58.3240 77.2160 306° West 433 498 36,000  Level FlightAware
06:29PM 58.3590 77.1240 306° West 434 499 36,000  Level FlightAware
06:30PM 58.4070 76.9970 306° West 435 501 36,000  Level FlightAware
06:31PM 58.4580 76.8600 305° West 437 503 36,000  Level FlightAware
06:32PM 58.5350 76.6520 305° West 437 503 36,000  Level FlightAware
06:33PM 58.5870 76.5150 306° West 436 502 36,000  Level FlightAware
06:33PM 58.6410 76.3750 307° West 434 499 36,000  Level FlightAware
06:34PM 58.6930 76.2390 306° West 432 497 36,000  Level FlightAware
06:35PM 58.7290 76.1460 307° West 430 495 36,000  Level FlightAware
06:35PM 58.7810 76.0080 306° West 431 496 36,000  Level FlightAware
06:36PM 58.8360 75.8620 306° West 431 496 36,000  Level FlightAware
06:37PM 58.8720 75.7660 306° West 431 496 36,000  Level FlightAware
06:38PM 58.9340 75.6010 306° West 437 503 36,000  Level FlightAware
06:38PM 58.9860 75.4590 305° West 437 503 36,000  Level FlightAware
06:39PM 59.0330 75.3330 306° West 436 502 36,000  Level FlightAware
06:40PM 59.0800 75.2040 305° West 435 501 36,000  Level FlightAware
06:40PM 59.1300 75.0680 306° West 436 502 36,000  Level FlightAware
06:41PM 59.1800 74.9300 305° West 436 502 36,000  Level FlightAware
06:42PM 59.2300 74.7920 305° West 437 503 36,000  Level FlightAware
06:43PM 59.2930 74.6150 305° West 439 505 36,000  Level FlightAware
06:44PM 59.3490 74.4420 302° West 439 505 36,000  Level FlightAware
06:44PM 59.3810 74.3380 301° West 439 505 36,000  Level FlightAware
06:45PM 59.4110 74.1670 289° West 36,000  Level FlightAware
06:48PM 59.4984 73.6404 288° West  Level Estimated
06:49PM 59.5331 73.4276 288° West  Level Estimated
06:50PM 59.5673 73.2143 288° West  Level Estimated
06:50PM 59.6370 73.1670 288° West 438 504 36,000  Level FlightAware
06:52PM 59.7024 72.7488 287° West  Level Estimated
06:52PM 59.7510 72.6410 287° West 440 506 36,000  Level FlightAware
06:53PM 59.7780 72.5170 293° West 440 506 36,000  Level FlightAware
06:53PM 0.0190 -0.0450 255° West 441 507 36,000  Level FlightAware
06:54PM 59.8570 72.1410 29° Northeast 440 506 36,000  Level FlightAware
06:55PM 59.8840 72.0100 292° West 438 504 36,000  Level FlightAware
06:56PM 59.9250 71.8150 293° West 439 505 36,000  Level FlightAware
06:56PM 59.9600 71.6440 292° West 439 505 36,000  Level FlightAware
06:57PM 59.9970 71.4620 292° West 439 505 36,000  Level FlightAware
06:58PM 60.0310 71.2940 292° West 436 502 36,000  Level FlightAware
06:59PM 60.0730 71.0840 292° West 434 499 36,000  Level FlightAware
07:00PM 60.1130 70.8830 292° West 434 499 36,000  Level FlightAware
07:01PM 60.1850 70.5110 285° West 435 501 36,000  Level FlightAware
07:02PM 60.1641 70.5019 285° West  Level Estimated
07:02PM 60.2070 70.3990 292° West 435 501 36,000  Level FlightAware
07:03PM 60.2560 70.1390 291° West 435 501 36,000  Level FlightAware
07:04PM 60.2380 70.2370 110° East 436 502 36,000  Level FlightAware
07:05PM 60.3320 69.7330 291° West 438 504 36,000  Level FlightAware
07:06PM 0.0150 -0.0400 284° West 437 503 36,000  Level FlightAware
07:08PM 60.4029 69.1543 284° West  Level Estimated
07:08PM 0.0170 -0.0450 292° West 437 503 36,000  Level FlightAware
07:10PM 0.2153 -0.0372 North  Level Estimated
07:10PM 60.5400 68.5830 North 442 509 36,000  Level FlightAware
07:10PM 60.5600 68.4660 289° West 442 509 36,000  Level FlightAware
07:11PM 60.5940 68.2730 290° West 442 509 36,000  Level FlightAware
07:12PM 60.6240 68.0950 289° West 442 509 36,000  Level FlightAware
07:13PM 60.6640 67.8620 289° West 444 511 36,000  Level FlightAware
07:14PM 60.6920 67.6900 288° West 445 512 36,000  Level FlightAware
07:15PM 60.7430 67.3850 289° West 446 513 36,000  Level FlightAware
07:16PM 60.7680 67.2320 289° West 446 513 36,000  Level FlightAware
07:16PM 60.7980 67.0460 288° West 447 514 36,000  Level FlightAware
07:17PM 60.8240 66.8840 288° West 448 516 36,000  Level FlightAware
07:18PM 60.8570 66.6730 288° West 447 514 36,000  Level FlightAware
07:19PM 60.8870 66.4810 288° West 448 516 36,000  Level FlightAware
07:19PM 60.9090 66.3400 288° West 448 516 36,000  Level FlightAware
07:21PM 60.9530 66.0460 287° West 447 514 36,000  Level FlightAware
07:21PM 60.9710 65.9260 287° West 447 514 36,000  Level FlightAware
07:22PM 0.0150 -0.0450 249° West 446 513 36,000  Level FlightAware
07:23PM 0.0140 -0.0420 108° East 446 513 36,000  Level FlightAware
07:23PM 0.0330 -0.1020 288° West 446 513 36,000  Level FlightAware
07:24PM 0.0590 -0.1820 288° West 446 513 36,000  Level FlightAware
07:25PM 0.0790 -0.2420 288° West 446 513 36,000  Level FlightAware
07:26PM 0.1050 -0.3220 288° West 446 513 36,000  Level FlightAware
07:26PM 0.1240 -0.3820 288° West 446 513 36,000  Level FlightAware
07:27PM 0.1570 -0.4840 288° West 446 513 36,000  Level FlightAware
07:28PM 0.1770 -0.5440 288° West 446 513 36,000  Level FlightAware
07:29PM 0.2030 -0.6240 288° West 446 513 36,000  Level FlightAware
07:29PM 0.2220 -0.6840 288° West 446 513 36,000  Level FlightAware
07:30PM 0.2490 -0.7660 288° West 446 513 36,000  Level FlightAware
07:31PM 0.2680 -0.8260 288° West 446 513 36,000  Level FlightAware
07:32PM 0.2950 -0.9070 288° West 446 513 36,000  Level FlightAware
07:32PM 0.3140 -0.9670 288° West 446 513 36,000  Level FlightAware
07:35PM 0.5857 -0.9524 North  Level Estimated
07:36PM 0.6989 -0.9464 North  Level Estimated
07:37PM 0.8122 -0.9403 North  Level Estimated
07:38PM 0.9254 -0.9343 North  Level Estimated
07:39PM 1.0386 -0.9282 North  Level Estimated
07:40PM 1.1518 -0.9221 North  Level Estimated
07:41PM 1.2650 -0.9161 North  Level Estimated
07:42PM 1.3783 -0.9100 North  Level Estimated
07:43PM 1.4915 -0.9039 North  Level Estimated
07:44PM 1.6047 -0.8978 North  Level Estimated
07:45PM 1.7179 -0.8918 North  Level Estimated
07:46PM 1.8311 -0.8857 North  Level Estimated
07:47PM 1.9444 -0.8796 North  Level Estimated
07:47PM 61.5790 59.5430 North 438 504 36,000  Level FlightAware
07:48PM 61.5910 59.3300 277° West 438 504 36,000  Level FlightAware
07:48PM 61.6000 59.1600 276° West 437 503 36,000  Level FlightAware
07:49PM 61.6090 58.9860 276° West 436 502 36,000  Level FlightAware
07:50PM 61.6180 58.7960 276° West 434 499 36,000  Level FlightAware
07:51PM 61.6290 58.5730 276° West 433 498 36,000  Level FlightAware
07:51PM 61.6350 58.4380 275° West 434 499 36,000  Level FlightAware
07:52PM 61.6400 58.3090 275° West 434 499 36,000  Level FlightAware
07:53PM 61.6610 57.8860 276° West 432 497 36,000  Level FlightAware
07:54PM 61.6680 57.7230 275° West 432 497 36,000  Level FlightAware
07:55PM 61.6730 57.6010 275° West 432 497 36,000  Level FlightAware
07:56PM 61.6840 57.3370 275° West 433 498 36,000  Level FlightAware
07:56PM 61.6910 57.1720 275° West 433 498 36,000  Level FlightAware
07:57PM 61.6960 57.0370 275° West 434 499 36,000  Level FlightAware
07:57PM 61.7010 56.8250 273° West 431 496 36,000  Level FlightAware
07:58PM 61.7040 56.6540 272° West 430 495 36,000  Level FlightAware
07:59PM 61.7060 56.4870 272° West 430 495 36,000  Level FlightAware
08:00PM 61.7070 56.3190 271° West 431 496 36,000  Level FlightAware
08:00PM 61.7090 56.1400 271° West 432 497 36,000  Level FlightAware
08:01PM 61.7100 55.9630 271° West 432 497 36,000  Level FlightAware
08:02PM 61.7110 55.8110 271° West 432 497 36,000  Level FlightAware
08:02PM 61.7110 55.6780 270° West 433 498 36,000  Level FlightAware
08:03PM 61.7120 55.4870 271° West 434 499 36,000  Level FlightAware
08:04PM 61.7130 55.2610 271° West 431 496 36,000  Level FlightAware
08:05PM 61.7130 55.0300 270° West 431 496 36,000  Level FlightAware
08:05PM 61.7130 54.8580 270° West 431 496 36,000  Level FlightAware
08:06PM 61.7120 54.6670 269° West 432 497 36,000  Level FlightAware
08:07PM 61.7110 54.5060 269° West 433 498 36,000  Level FlightAware
08:08PM 61.7100 54.3100 269° West 433 498 36,000  Level FlightAware
08:08PM 61.7090 54.1340 269° West 431 496 36,000  Level FlightAware
08:09PM 61.7080 53.9660 269° West 430 495 36,000  Level FlightAware
08:10PM 61.7070 53.7920 269° West 429 494 36,000  Level FlightAware
08:10PM 61.7050 53.6420 268° West 429 494 36,000  Level FlightAware
08:11PM 61.7030 53.4410 269° West 428 493 36,000  Level FlightAware
08:12PM 61.7010 53.2950 268° West 429 494 36,000  Level FlightAware
08:12PM 61.6990 53.1230 269° West 429 494 36,000  Level FlightAware
08:13PM 61.6950 52.8770 268° West 430 495 36,000  Level FlightAware
08:14PM 61.6900 52.6100 268° West 432 497 36,000  Level FlightAware
08:15PM 61.6880 52.4630 268° West 432 497 36,000  Level FlightAware
08:16PM 61.6830 52.2410 267° West 432 497 36,000  Level FlightAware
08:16PM 61.6800 52.0850 268° West 431 496 36,000  Level FlightAware
08:17PM 61.6760 51.8970 268° West 432 497 36,000  Level FlightAware
08:18PM 61.6720 51.7250 267° West 432 497 36,000  Level FlightAware
08:19PM 61.6670 51.5550 267° West 431 496 36,000  Level FlightAware
08:19PM 61.6610 51.3280 267° West 433 498 36,000  Level FlightAware
08:20PM 61.6560 51.1480 267° West 432 497 36,000  Level FlightAware
08:21PM 61.6500 50.9350 267° West 432 497 36,000  Level FlightAware
08:22PM 61.6430 50.7950 264° West 433 498 36,000  Level FlightAware
08:22PM 61.6260 50.5970 260° West 434 499 36,000  Level FlightAware
08:23PM 61.6150 50.4560 261° West 434 499 36,000  Level FlightAware
08:24PM 61.6010 50.2900 260° West 434 499 36,000  Level FlightAware
08:24PM 61.5900 50.1630 260° West 434 499 36,000  Level FlightAware
08:25PM 61.5760 49.9930 260° West 434 499 36,000  Level FlightAware
08:26PM 61.5650 49.8630 260° West 434 499 36,000  Level FlightAware
08:27PM 61.5500 49.6930 260° West 434 499 36,000  Level FlightAware
08:27PM 61.5400 49.5660 261° West 434 499 36,000  Level FlightAware
08:28PM 61.5260 49.4000 260° West 434 499 36,000  Level FlightAware
08:29PM 61.5160 49.2810 260° West 434 499 36,000  Level FlightAware
08:29PM 61.5000 49.1010 260° West 434 499 36,000  Level FlightAware
08:30PM 61.4900 48.9740 261° West 434 499 36,000  Level FlightAware
08:31PM 61.4750 48.8020 260° West 434 499 36,000  Level FlightAware
08:31PM 61.4640 48.6750 260° West 434 499 36,000  Level FlightAware
08:32PM 61.4500 48.5060 260° West 434 499 36,000  Level FlightAware
08:35PM 61.4270 47.9627 265° West  Level Estimated
08:36PM 61.4163 47.7267 265° West  Level Estimated
08:37PM 61.4052 47.4909 264° West  Level Estimated
08:38PM 61.3937 47.2553 264° West  Level Estimated
08:39PM 61.3813 47.0098 264° West  Level Estimated
08:40PM 61.3685 46.7646 264° West  Level Estimated
08:41PM 61.3552 46.5195 264° West  Level Estimated
08:42PM 61.3414 46.2746 263° West  Level Estimated
08:43PM 61.3273 46.0300 263° West  Level Estimated
08:44PM 61.3126 45.7856 263° West  Level Estimated
08:45PM 61.2976 45.5414 263° West  Level Estimated
08:46PM 61.2821 45.2975 263° West  Level Estimated
08:47PM 61.2662 45.0538 262° West  Level Estimated
08:48PM 61.2498 44.8103 262° West  Level Estimated
08:49PM 61.2330 44.5671 262° West  Level Estimated
08:50PM 61.2158 44.3242 262° West  Level Estimated
08:51PM 61.1981 44.0815 262° West  Level Estimated
08:52PM 61.1800 43.8392 261° West  Level Estimated
08:53PM 61.1615 43.5971 261° West  Level Estimated
08:54PM 61.1425 43.3553 261° West  Level Estimated
08:55PM 61.1231 43.1137 261° West  Level Estimated
08:55PM 60.7920 42.5150 261° West 448 516 36,000  Level FlightAware
08:56PM 60.7820 42.3550 263° West 448 516 36,000  Level FlightAware
08:57PM 60.7680 42.1480 262° West 449 517 36,000  Level FlightAware
08:57PM 60.7540 41.9350 262° West 446 513 36,000  Level FlightAware
08:58PM 60.7420 41.7580 262° West 447 514 36,000  Level FlightAware
08:59PM 60.7300 41.6000 261° West 447 514 36,000  Level FlightAware
08:59PM 60.7180 41.4200 262° West 446 513 36,000  Level FlightAware
09:00PM 60.7060 41.2600 261° West 446 513 36,000  Level FlightAware
09:01PM 60.6930 41.0860 261° West 448 516 36,000  Level FlightAware
09:01PM 60.6800 40.9110 261° West 450 518 36,000  Level FlightAware
09:02PM 60.6680 40.7580 261° West 450 518 36,000  Level FlightAware
09:03PM 60.6530 40.5660 261° West 448 516 36,000  Level FlightAware
09:03PM 60.6410 40.4120 261° West 448 516 36,000  Level FlightAware
09:04PM 60.6230 40.1860 261° West 451 519 36,000  Level FlightAware
09:05PM 60.6040 39.9650 260° West 451 519 36,000  Level FlightAware
09:06PM 60.5910 39.8080 260° West 451 519 36,000  Level FlightAware
09:07PM 60.5760 39.6280 260° West 451 519 36,000  Level FlightAware
09:07PM 60.5610 39.4510 260° West 452 520 36,000  Level FlightAware
09:08PM 60.5460 39.2880 259° West 452 520 36,000  Level FlightAware
09:09PM 60.5320 39.1280 260° West 451 519 36,000  Level FlightAware
09:09PM 60.5140 38.9260 260° West 452 520 36,000  Level FlightAware
09:10PM 60.4970 38.7510 259° West 452 520 36,000  Level FlightAware
09:11PM 60.4820 38.5880 259° West 454 522 36,000  Level FlightAware
09:12PM 60.4650 38.4100 259° West 454 522 36,000  Level FlightAware
09:12PM 60.4420 38.1740 259° West 36,000  Level FlightAware
09:13PM 60.4250 38.0050 259° West 455 524 36,000  Level FlightAware
09:14PM 60.4110 37.8780 257° West 455 524 36,000  Level FlightAware
09:15PM 60.3930 37.7080 258° West 455 524 36,000  Level FlightAware
09:15PM 60.3730 37.4820 260° West 456 525 36,000  Level FlightAware
09:16PM 60.3560 37.3230 258° West 456 525 36,000  Level FlightAware
09:17PM 60.3350 37.1190 258° West 457 526 36,000  Level FlightAware
09:17PM 60.3130 36.9220 257° West 456 525 36,000  Level FlightAware
09:18PM 60.2930 36.7490 257° West 456 525 36,000  Level FlightAware
09:19PM 60.2740 36.5800 257° West 456 525 36,000  Level FlightAware
09:20PM 60.2590 36.4500 257° West 456 525 36,000  Level FlightAware
09:21PM 60.2390 36.2810 257° West 456 525 36,000  Level FlightAware
09:21PM 60.2300 36.1960 258° West 456 525 36,000  Level FlightAware
09:22PM 60.2100 36.0270 257° West 456 525 36,000  Level FlightAware
09:22PM 60.1950 35.8970 257° West 456 525 36,000  Level FlightAware
09:23PM 60.1760 35.7290 257° West 456 525 36,000  Level FlightAware
09:24PM 60.1610 35.6020 257° West 456 525 36,000  Level FlightAware
09:25PM 60.1420 35.4340 257° West 456 525 36,000  Level FlightAware
09:25PM 60.1270 35.3070 257° West 456 525 36,000  Level FlightAware
09:26PM 60.1080 35.1390 257° West 456 525 36,000  Level FlightAware
09:27PM 60.0930 35.0090 257° West 456 525 36,000  Level FlightAware
09:29PM 60.0273 34.5663 254° West  Level Estimated
09:30PM 59.9931 34.3400 253° West  Level Estimated
09:31PM 59.9584 34.1141 253° West  Level Estimated
09:32PM 59.9234 33.8887 253° West  Level Estimated
09:33PM 59.8880 33.6638 253° West  Level Estimated
09:33PM 59.8860 32.9260 253° West 462 532 36,000  Level FlightAware
09:34PM 59.8710 32.7990 257° West 463 533 36,000  Level FlightAware
09:35PM 59.8500 32.6240 257° West 462 532 36,000  Level FlightAware
09:35PM 59.8290 32.4490 257° West 462 532 36,000  Level FlightAware
09:36PM 59.8110 32.2650 259° West 461 531 36,000  Level FlightAware
09:37PM 59.7990 32.0830 263° West 461 531 36,000  Level FlightAware
09:38PM 59.7850 31.8920 262° West 462 532 36,000  Level FlightAware
09:38PM 59.7730 31.7210 262° West 463 533 36,000  Level FlightAware
09:39PM 59.7600 31.5560 261° West 465 535 36,000  Level FlightAware
09:40PM 59.7460 31.3680 262° West 465 535 36,000  Level FlightAware
09:40PM 59.7320 31.1790 262° West 465 535 36,000  Level FlightAware
09:41PM 59.7190 31.0130 261° West 465 535 36,000  Level FlightAware
09:42PM 59.7070 30.8620 261° West 465 535 36,000  Level FlightAware
09:42PM 59.6940 30.7000 261° West 465 535 36,000  Level FlightAware
09:43PM 59.6780 30.5050 261° West 466 536 36,000  Level FlightAware
09:44PM 59.6660 30.3640 260° West 466 536 36,000  Level FlightAware
09:44PM 59.6520 30.1950 261° West 467 537 36,000  Level FlightAware
09:45PM 59.6370 30.0230 260° West 469 540 36,000  Level FlightAware
09:46PM 59.6230 29.8550 261° West 470 541 36,000  Level FlightAware
09:46PM 59.6080 29.6880 260° West 470 541 36,000  Level FlightAware
09:47PM 59.5930 29.5180 260° West 470 541 36,000  Level FlightAware
09:48PM 59.5770 29.3490 259° West 470 541 36,000  Level FlightAware
09:48PM 59.5610 29.1740 260° West 469 540 36,000  Level FlightAware
09:49PM 59.5430 28.9740 260° West 469 540 36,000  Level FlightAware
09:50PM 59.5260 28.8030 259° West 471 542 36,000  Level FlightAware
09:51PM 59.5080 28.6130 260° West 472 543 36,000  Level FlightAware
09:51PM 59.4940 28.4690 259° West 473 544 36,000  Level FlightAware
09:52PM 59.4770 28.3010 259° West 474 545 36,000  Level FlightAware
09:53PM 59.4560 28.1090 258° West 473 544 36,000  Level FlightAware
09:53PM 59.4350 27.9860 251° West 473 544 36,000  Level FlightAware
09:54PM 59.4010 27.8080 249° West 474 545 36,000  Level FlightAware
09:54PM 59.3700 27.6490 249° West 474 545 36,000  Level FlightAware
09:55PM 59.3340 27.4700 249° West 472 543 36,000  Level FlightAware
09:56PM 59.3020 27.3070 249° West 473 544 36,000  Level FlightAware
09:57PM 59.2670 27.1310 249° West 473 544 36,000  Level FlightAware
09:57PM 59.2350 26.9720 249° West 475 547 36,000  Level FlightAware
09:58PM 59.2060 26.8290 248° West 474 545 36,000  Level FlightAware
09:59PM 59.1740 26.6740 248° West 474 545 36,000  Level FlightAware
09:59PM 59.1380 26.4990 248° West 475 547 36,000  Level FlightAware
10:00PM 59.1130 26.3780 248° West 475 547 36,000  Level FlightAware
10:01PM 59.0760 26.2020 248° West 476 548 36,000  Level FlightAware
10:01PM 59.0430 26.0440 248° West 476 548 36,000  Level FlightAware
10:02PM 59.0080 25.8820 247° West 476 548 36,000  Level FlightAware
10:03PM 58.9710 25.7060 248° West 476 548 36,000  Level FlightAware
10:03PM 58.9370 25.5520 247° West 477 549 36,000  Level FlightAware
10:04PM 58.8990 25.3760 247° West 476 548 36,000  Level FlightAware
10:05PM 58.8680 25.2370 247° West 476 548 36,000  Level FlightAware
10:05PM 58.8340 25.0830 247° West 475 547 36,000  Level FlightAware
10:06PM 58.7950 24.9070 247° West 475 547 36,000  Level FlightAware
10:07PM 58.7610 24.7560 247° West 474 545 36,000  Level FlightAware
10:07PM 58.7300 24.6180 247° West 473 544 36,000  Level FlightAware
10:08PM 58.6910 24.4490 246° West 471 542 36,000  Level FlightAware
10:09PM 58.6550 24.2920 246° West 471 542 36,000  Level FlightAware
10:09PM 58.6200 24.1400 246° West 472 543 36,000  Level FlightAware
10:10PM 58.5800 23.9660 246° West 472 543 36,000  Level FlightAware
10:11PM 58.5280 23.7460 246° West 471 542 36,000  Level FlightAware
10:12PM 58.4960 23.6100 246° West 470 541 36,000  Level FlightAware
10:12PM 58.4600 23.4620 245° Southwest 469 540 36,000  Level FlightAware
10:13PM 58.4240 23.3110 246° West 469 540 36,000  Level FlightAware
10:14PM 58.3870 23.1580 245° Southwest 470 541 36,000  Level FlightAware
10:14PM 58.3510 23.0110 245° Southwest 472 543 36,000  Level FlightAware
10:15PM 58.3140 22.8600 245° Southwest 471 542 36,000  Level FlightAware
10:16PM 58.2770 22.7100 245° Southwest 470 541 36,000  Level FlightAware
10:16PM 58.2440 22.5790 244° Southwest 471 542 36,000  Level FlightAware
10:17PM 58.2070 22.4240 246° West 472 543 36,000  Level FlightAware
10:18PM 58.1680 22.2510 247° West 472 543 36,000  Level FlightAware
10:18PM 58.1340 22.1050 246° West 473 544 36,000  Level FlightAware
10:19PM 58.0950 21.9400 246° West 474 545 36,000  Level FlightAware
10:20PM 58.0590 21.7860 246° West 474 545 36,000  Level FlightAware
10:20PM 58.0210 21.6240 246° West 475 547 36,000  Level FlightAware
10:21PM 57.9790 21.4740 242° Southwest 476 548 36,000  Level FlightAware
10:22PM 57.9380 21.3240 243° Southwest 476 548 36,000  Level FlightAware
10:23PM 57.8920 21.1640 242° Southwest 475 547 36,000  Level FlightAware
10:23PM 57.8470 21.0040 242° Southwest 476 548 36,000  Level FlightAware
10:24PM 57.8040 20.8540 242° Southwest 477 549 36,000  Level FlightAware
10:25PM 57.7610 20.7050 242° Southwest 478 550 36,000  Level FlightAware
10:25PM 57.7150 20.5460 242° Southwest 479 551 36,000  Level FlightAware
10:26PM 57.6730 20.4020 241° Southwest 479 551 36,000  Level FlightAware
10:27PM 57.6270 20.2430 242° Southwest 482 555 36,000  Level FlightAware
10:27PM 57.5850 20.1030 241° Southwest 483 556 36,000  Level FlightAware
10:28PM 57.5440 19.9660 241° Southwest 485 558 36,000  Level FlightAware
10:29PM 57.5010 19.8220 241° Southwest 486 559 36,000  Level FlightAware
10:29PM 57.4530 19.6610 241° Southwest 487 560 36,000  Level FlightAware
10:30PM 57.4080 19.5150 240° Southwest 487 560 36,000  Level FlightAware
10:31PM 57.3600 19.3560 241° Southwest 488 562 36,000  Level FlightAware
10:32PM 57.3150 19.2100 240° Southwest 487 560 36,000  Level FlightAware
10:32PM 57.2660 19.0520 240° Southwest 488 562 36,000  Level FlightAware
10:33PM 57.2260 18.9230 240° Southwest 489 563 36,000  Level FlightAware
10:34PM 57.1810 18.7770 240° Southwest 489 563 36,000  Level FlightAware
10:34PM 57.1310 18.6190 240° Southwest 489 563 36,000  Level FlightAware
10:35PM 57.0960 18.5080 240° Southwest 489 563 36,000  Level FlightAware
10:36PM 57.0430 18.3420 240° Southwest 488 562 36,000  Level FlightAware
10:36PM 56.9970 18.1970 240° Southwest 487 560 36,000  Level FlightAware
10:37PM 56.9470 18.0430 239° Southwest 486 559 36,000  Level FlightAware
10:38PM 56.9010 17.9020 239° Southwest 486 559 36,000  Level FlightAware
10:38PM 56.8510 17.7480 239° Southwest 487 560 36,000  Level FlightAware
10:39PM 56.8040 17.6060 239° Southwest 487 560 36,000  Level FlightAware
10:40PM 56.7530 17.4530 239° Southwest 487 560 36,000  Level FlightAware
10:40PM 56.7070 17.3120 239° Southwest 486 559 36,000  Level FlightAware
10:41PM 56.6550 17.1590 238° Southwest 487 560 36,000  Level FlightAware
10:42PM 56.6080 17.0180 239° Southwest 488 562 36,000  Level FlightAware
10:43PM 56.5590 16.8710 239° Southwest 488 562 36,000  Level FlightAware
10:43PM 56.5100 16.7290 238° Southwest 488 562 36,000  Level FlightAware
10:44PM 56.4660 16.6020 238° Southwest 488 562 36,000  Level FlightAware
10:44PM 56.4220 16.4730 238° Southwest 488 562 36,000  Level FlightAware
10:45PM 56.3670 16.3140 238° Southwest 489 563 36,000  Level FlightAware
10:46PM 56.3170 16.1700 238° Southwest 491 565 36,000  Level FlightAware
10:47PM 56.2620 16.0150 237° Southwest 493 567 36,000  Level FlightAware
10:47PM 56.2140 15.8790 238° Southwest 492 566 36,000  Level FlightAware
10:48PM 56.1600 15.7280 237° Southwest 492 566 36,000  Level FlightAware
10:49PM 56.1120 15.5900 238° Southwest 492 566 36,000  Level FlightAware
10:49PM 56.0570 15.4380 237° Southwest 494 568 36,000  Level FlightAware
10:50PM 56.0080 15.3020 237° Southwest 494 568 36,000  Level FlightAware
10:51PM 55.9530 15.1520 237° Southwest 493 567 36,000  Level FlightAware
10:51PM 55.9070 15.0260 237° Southwest 492 566 36,000  Level FlightAware
10:52PM 55.8510 14.8750 237° Southwest 490 564 36,000  Level FlightAware
10:53PM 55.7990 14.7330 237° Southwest 489 563 36,000  Level FlightAware
10:54PM 55.7500 14.6020 236° Southwest 490 564 36,000  Level FlightAware
10:54PM 55.6990 14.4650 237° Southwest 488 562 36,000  Level FlightAware
10:55PM 55.6470 14.3280 236° Southwest 486 559 36,000  Level FlightAware
10:56PM 55.5930 14.1840 236° Southwest 484 557 36,000  Level FlightAware
10:56PM 55.5440 14.0550 236° Southwest 482 555 36,000  Level FlightAware
10:57PM 55.4950 13.9280 236° Southwest 482 555 36,000  Level FlightAware
10:58PM 55.4450 13.7960 236° Southwest 483 556 36,000  Level FlightAware
10:58PM 55.4000 13.6810 235° Southwest 483 556 36,000  Level FlightAware
10:59PM 55.3420 13.5320 236° Southwest 482 555 36,000  Level FlightAware
11:00PM 55.2930 13.4060 236° Southwest 480 552 36,000  Level FlightAware
11:00PM 55.2390 13.2680 236° Southwest 478 550 36,000  Level FlightAware
11:01PM 55.1880 13.1410 235° Southwest 478 550 36,000  Level FlightAware
11:02PM 55.1310 12.9970 235° Southwest 479 551 36,000  Level FlightAware
11:02PM 55.0820 12.8740 235° Southwest 481 554 36,000  Level FlightAware
11:03PM 55.0360 12.7590 235° Southwest 480 552 36,000  Level FlightAware
11:04PM 54.9820 12.6250 235° Southwest 479 551 36,000  Level FlightAware
11:05PM 54.9270 12.4890 235° Southwest 477 549 36,000  Level FlightAware
11:05PM 54.8860 12.3870 235° Southwest 475 547 36,000  Level FlightAware
11:06PM 54.8310 12.2530 235° Southwest 473 544 36,000  Level FlightAware
11:06PM 54.7800 12.1290 235° Southwest 473 544 36,000  Level FlightAware
11:07PM 54.7340 12.0180 234° Southwest 475 547 36,000  Level FlightAware
11:08PM 54.6830 11.8960 234° Southwest 475 547 36,000  Level FlightAware
11:08PM 54.6280 11.7630 234° Southwest 476 548 36,000  Level FlightAware
11:09PM 54.5730 11.6430 232° Southwest 481 554 36,000  Level FlightAware
11:10PM 54.5000 11.5280 222° Southwest 485 558 36,000  Level FlightAware
11:10PM 54.4390 11.4380 221° Southwest 484 557 36,000  Level FlightAware
11:11PM 54.3630 11.3270 220° Southwest 476 548 36,000  Level FlightAware
11:12PM 54.3060 11.2440 220° Southwest 474 545 36,000  Level FlightAware
11:13PM 54.2280 11.1300 221° Southwest 472 543 36,000  Level FlightAware
11:13PM 54.1610 11.0330 220° Southwest 471 542 36,000  Level FlightAware
11:14PM 54.1020 10.9470 221° Southwest 470 541 36,000  Level FlightAware
11:14PM 54.0350 10.8510 220° Southwest 470 541 36,000  Level FlightAware
11:15PM 53.9690 10.7560 220° Southwest 470 541 36,000  Level FlightAware
11:16PM 53.8920 10.6470 220° Southwest 471 542 36,000  Level FlightAware
11:17PM 53.8240 10.5510 220° Southwest 477 549 36,000  Level FlightAware
11:17PM 53.7520 10.4490 220° Southwest 471 542 36,000  Level FlightAware
11:18PM 53.6810 10.3500 220° Southwest 477 549 36,000  Level FlightAware
11:19PM 53.5970 10.2310 220° Southwest 476 548 36,000  Level FlightAware
11:19PM 53.5260 10.1330 219° Southwest 469 540 36,000  Level FlightAware
11:20PM 53.4500 10.0280 219° Southwest 468 539 36,000  Level FlightAware
11:21PM 53.3660 9.9130 219° Southwest 467 537 36,000  Level FlightAware
11:22PM 53.2990 9.8200 220° Southwest 467 537 36,000  Level FlightAware
11:22PM 53.2260 9.7200 219° Southwest 466 536 36,000  Level FlightAware
11:23PM 53.1730 9.6470 220° Southwest 467 537 36,000  Level FlightAware
11:24PM 53.1000 9.5470 219° Southwest 467 537 36,000  Level FlightAware
11:24PM 53.0310 9.4530 219° Southwest 467 537 36,000  Level FlightAware
11:25PM 52.9640 9.3620 219° Southwest 465 535 36,000  Level FlightAware
11:26PM 52.8850 9.2560 219° Southwest 463 533 36,000  Level FlightAware
11:26PM 52.8190 9.1670 219° Southwest 461 531 36,000  Level FlightAware
11:27PM 52.7520 9.0780 219° Southwest 460 529 36,000  Level FlightAware
11:28PM 52.6860 8.9890 219° Southwest 460 529 36,000  Level FlightAware
11:28PM 52.6180 8.8980 219° Southwest 461 531 36,000  Level FlightAware
11:29PM 52.5510 8.8100 219° Southwest 461 531 36,000  Level FlightAware
11:30PM 52.4820 8.7190 219° Southwest 461 531 36,000  Level FlightAware
11:30PM 52.4170 8.6330 219° Southwest 461 531 36,000  Level FlightAware
11:31PM 52.3400 8.5330 218° Southwest 461 531 36,000  Level FlightAware
11:32PM 52.2730 8.4460 218° Southwest 460 529 36,000  Level FlightAware
11:33PM 52.2050 8.3580 218° Southwest 459 528 36,000  Level FlightAware
11:33PM 52.1280 8.2580 219° Southwest 459 528 36,000  Level FlightAware
11:34PM 52.0610 8.1710 219° Southwest 460 529 36,000  Level FlightAware
11:35PM 52.0030 8.0980 218° Southwest 466 536 36,000  Level FlightAware
11:35PM 51.9300 8.0190 214° Southwest 463 533 36,000  Level FlightAware
11:36PM 51.8480 7.9330 213° Southwest 462 532 36,000  Level FlightAware
11:37PM 51.7830 7.8660 213° Southwest 460 529 36,000  Level FlightAware
11:37PM 51.7120 7.7910 213° Southwest 458 527 36,000  Level FlightAware
11:38PM 51.6390 7.7150 213° Southwest 464 534 36,000  Level FlightAware
11:39PM 51.5670 7.6410 213° Southwest 459 528 36,000  Level FlightAware
11:39PM 51.4830 7.5530 213° Southwest 467 537 36,000  Level FlightAware
11:40PM 51.4030 7.4700 213° Southwest 468 539 36,000  Level FlightAware
11:41PM 51.3310 7.3950 213° Southwest 468 539 36,000  Level FlightAware
11:41PM 51.2510 7.3110 213° Southwest 466 536 36,000  Level FlightAware
11:42PM 51.1790 7.2370 213° Southwest 466 536 36,000  Level FlightAware
11:43PM 51.1080 7.1490 218° Southwest 462 532 36,000  Level FlightAware
11:44PM 51.0370 7.0550 220° Southwest 463 533 36,000  Level FlightAware
11:44PM 50.9670 6.9620 220° Southwest 463 533 36,000  Level FlightAware
11:45PM 50.9090 6.8860 220° Southwest 464 534 36,000  Level FlightAware
11:46PM 50.8310 6.7840 220° Southwest 465 535 36,000  Level FlightAware
11:46PM 50.7720 6.7050 220° Southwest 465 535 36,000  Level FlightAware
11:47PM 50.6980 6.6100 219° Southwest 464 534 36,000  Level FlightAware
11:48PM 50.6340 6.5260 220° Southwest 463 533 36,000  Level FlightAware
11:48PM 50.5630 6.4340 219° Southwest 462 532 36,000  Level FlightAware
11:49PM 50.4950 6.3470 219° Southwest 463 533 36,000  Level FlightAware
11:50PM 50.4230 6.2540 219° Southwest 463 533 36,000 -240 Level FlightAware
11:50PM 50.3560 6.1680 219° Southwest 464 534 35,700 -660 Descending FlightAware
11:51PM 50.3020 6.0890 223° Southwest 459 528 35,200 -1,020 Descending FlightAware
11:52PM 50.2620 5.9890 238° Southwest 455 524 34,500 -1,080 Descending FlightAware
11:52PM 50.2160 5.8480 243° Southwest 457 526 33,700 -1,080 Descending FlightAware
11:53PM 50.1790 5.7380 242° Southwest 453 521 33,100 -1,020 Descending FlightAware
11:54PM 50.1440 5.6310 243° Southwest 451 519 32,500 -1,020 Descending FlightAware
11:54PM 50.0990 5.4980 242° Southwest 449 517 31,700 -1,020 Descending FlightAware
11:55PM 50.0670 5.4020 243° Southwest 446 513 31,200 -1,020 Descending FlightAware
11:56PM 50.0290 5.2880 243° Southwest 440 506 30,500 -1,020 Descending FlightAware
11:56PM 49.9880 5.1670 242° Southwest 438 504 29,800 -1,020 Descending FlightAware
11:57PM 49.9490 5.0530 242° Southwest 443 510 29,100 -1,080 Descending FlightAware
11:58PM 49.9070 4.9320 242° Southwest 454 522 28,400 -780 Descending FlightAware
11:59PM 49.8640 4.8050 242° Southwest 450 518 28,000 -360 Descending FlightAware
11:59PM 49.8240 4.6910 242° Southwest 450 518 27,900 -180 Descending FlightAware
11:59PM 49.8218 4.6850 242° Southwest 1 1 27,900 -1,500 Level FlightAware UK
12:00AM 49.7922 4.5996 242° Southwest 1 1 27,100 -1,440 Descending FlightAware UK
12:00AM 49.7890 4.5890 242° Southwest 448 516 27,100 -1,500 Level FlightAware
12:00AM 49.7510 4.4800 242° Southwest 439 505 26,000 -1,740 Descending FlightAware
12:01AM 49.7090 4.3590 242° Southwest 432 497 24,700 -1,740 Descending FlightAware
12:02AM 49.6780 4.2720 241° Southwest 426 490 23,800 -1,800 Descending FlightAware
12:03AM 49.6300 4.1350 242° Southwest 415 478 22,200 -1,860 Descending FlightAware
12:03AM 49.5930 4.0310 241° Southwest 408 470 21,000 -1,800 Descending FlightAware
12:04AM 49.5580 3.9320 241° Southwest 402 463 19,800 -1,860 Descending FlightAware
12:05AM 49.5250 3.8400 241° Southwest 401 461 18,700 -1,860 Descending FlightAware
12:05AM 49.4870 3.7340 241° Southwest 395 455 17,400 -1,800 Descending FlightAware
12:06AM 49.4500 3.6260 242° Southwest 387 445 16,100 -1,620 Descending FlightAware
12:07AM 49.4210 3.4600 255° West 376 433 14,500 -1,500 Descending FlightAware
12:08AM 49.4040 3.3920 249° West 378 435 13,800 -1,500 Descending FlightAware
12:08AM 49.3840 3.3180 247° West 376 433 13,100 -1,260 Descending FlightAware
12:09AM 49.3620 3.2360 248° West 375 432 12,500 -1,080 Descending FlightAware
12:09AM 49.3350 3.1360 248° West 372 428 11,800 -1,080 Descending FlightAware
12:10AM 49.3090 3.0400 247° West 358 412 11,100 -480 Descending FlightAware
12:11AM 49.2730 2.9070 248° West 309 356 11,000 -60 Descending FlightAware
12:12AM 49.2480 2.8170 247° West 308 354 11,000  Level FlightAware
12:12AM 49.2240 2.7290 247° West 312 359 11,000  Level FlightAware
12:13AM 49.2020 2.6490 247° West 284 327 11,000  Level FlightAware
12:14AM 49.1820 2.5710 249° West 274 315 11,000 -360 Level FlightAware
12:15AM 49.1790 2.4940 267° West 268 308 10,500 -900 Descending FlightAware
12:15AM 49.1780 2.4270 269° West 265 305 9,900 -1,140 Descending FlightAware
12:15AM 49.1780 2.4030 270° West 265 305 9,600 -1,080 Descending FlightAware
12:16AM 49.1760 2.3510 267° West 264 304 9,200 -1,080 Descending FlightAware
12:16AM 49.1750 2.2980 268° West 264 304 8,600 -1,440 Descending FlightAware
12:17AM 49.1740 2.2470 268° West 263 303 7,900 -1,620 Descending FlightAware
12:17AM 49.1704 2.2315 268° West 254 292 7,700 -1,500 Descending FlightAware UK
12:17AM 49.1720 2.1860 267° West 259 298 7,100 -1,440 Descending FlightAware
12:18AM 49.1600 2.1370 267° West 261 300 6,400 -1,500 Descending FlightAware
12:18AM 49.1581 2.1284 267° West 248 285 6,300 -900 Descending FlightAware UK
12:18AM 49.1470 2.0900 247° West 256 295 6,000 -1,080 Descending FlightAware
12:19AM 49.1310 2.0550 247° West 255 293 5,500 -1,500 Descending FlightAware
12:19AM 49.1268 2.0553 247° West 240 276 5,200 -1,320 Descending FlightAware UK
12:19AM 49.1030 2.0280 212° Southwest 256 295 4,900 -540 Descending FlightAware
12:20AM 49.0760 2.0040 212° Southwest 250 288 4,800 -240 Descending FlightAware
12:20AM 49.0688 2.0021 212° Southwest 234 269 4,800  Level FlightAware UK
12:20AM 49.0620 1.9990 193° South 240 276 4,800  Level FlightAware
12:20AM 49.0370 1.9970 183° South 215 247 4,800  Level FlightAware
12:21AM 49.0160 1.9950 183° South 209 241 4,800  Level FlightAware
12:21AM 49.0005 1.9965 183° South 196 226 4,800  Level FlightAware UK
12:21AM 48.9874 2.0127 183° South 196 226 4,800  Level FlightAware UK
12:21AM 48.9860 2.0270 183° South 194 223 4,800  Level FlightAware
12:22AM 48.9740 2.0560 183° South 194 223 4,800  Level FlightAware
12:22AM 48.9694 2.0661 183° South 196 226 4,800  Level FlightAware UK
12:22AM 48.9710 2.0720 106° East 188 216 4,800  Level FlightAware
12:22AM 48.9734 2.1245 106° East 196 226 4,800  Level FlightAware UK
12:22AM 48.9720 2.1250 106° East 185 213 4,800  Level FlightAware
12:23AM 48.9730 2.1440 85° East 185 213 4,800  Level FlightAware
12:23AM 48.9750 2.1810 85° East 185 213 4,800  Level FlightAware
12:23AM 48.9747 2.1906 85° East 196 226 4,800 -540 Level FlightAware UK
12:24AM 48.9770 2.2120 84° East 187 215 4,600 -840 Descending FlightAware
12:24AM 48.9780 2.2360 86° East 189 217 4,300 -1,260 Descending FlightAware
12:24AM 48.9810 2.2780 86° East 197 227 3,600 -1,380 Descending FlightAware
12:25AM 48.9807 2.2880 86° East 198 228 3,500 -1,080 Descending FlightAware UK
12:25AM 48.9820 2.3090 87° East 199 229 3,200 -960 Descending FlightAware
12:25AM 48.9840 2.3320 82° East 192 221 3,000 -1,080 Descending FlightAware
12:25AM 48.9840 2.3470 90° East 185 213 2,700 -960 Descending FlightAware
12:26AM 48.9870 2.3870 83° East 165 190 2,300 -840 Descending FlightAware
12:26AM 48.9870 2.4010 90° East 158 182 2,100 -900 Descending FlightAware
12:26AM 48.9890 2.4300 84° East 139 160 1,700 -780 Descending FlightAware
12:27AM 48.9900 2.4550 87° East 126 145 1,400 -660 Descending FlightAware
12:27AM 48.9920 2.4800 83° East 127 146 1,100 -720 Descending FlightAware
12:28AM 48.9930 2.5030 86° East 126 145 800 -840 Descending FlightAware
12:28AM 48.9940 2.5290 87° East 130 150 400 -780 Descending FlightAware
12:29AM 48.9960 2.5540 83° East 134 154 100 -660 Descending FlightAware
12:29AM 48.9970 2.5770 86° East 72 83 -240 Descending FlightAware
12:30AM 48.9970 2.5820 90° East 38 44  Level FlightAware
12:30AM 48.9980 2.5880 76° East 32 37  Level FlightAware
12:30AM 48.9990 2.5920 69° East 16 18  Level FlightAware
12:31AM 48.9990 2.5930 90° East 7 8  Level FlightAware
12:33AM 49.0128 2.5500 296° West  Level Estimated